Suehiro Maru No.8 — JK5423 — position and weather

sailwx.info

Track history (hours):
 
Tides and Currents Weather Stations Pressure Air Temp Water Temp Dewpoint Dewpoint Depression Visibility Wind Speed Wind Dir Waves Ship Positions

Suehiro Maru No.8

Last reported at 2017-Feb-22 06:33 UTC. Time now 2017-Feb-22 06:40 UTC.
Position N 35°00' E 139°51'.

Length 88 m; draft 5.8 m.

Type: Cargo ship. MMSI: 431400446.

Date/timePositionNaut miles runAvg speedWind from/ knotsBaromVisibWave heightAir tempDewpointWater temp
2017-Feb-22 06:33N 35°00' E 139°51'0 0.0
2017-Feb-22 05:33N 35°00' E 139°51'0 0.0
2017-Feb-22 04:33N 35°00' E 139°51'0 0.0
2017-Feb-22 03:33N 35°00' E 139°51'0 0.0
2017-Feb-22 02:33N 35°00' E 139°51'0 0.1
2017-Feb-22 01:33N 35°00' E 139°51'0 0.0
2017-Feb-22 00:33N 35°00' E 139°51'0 0.0
2017-Feb-21 23:33N 35°00' E 139°51'0 0.1
2017-Feb-21 22:33N 35°00' E 139°51'0 0.0
2017-Feb-21 21:33N 35°00' E 139°51'0 0.1
2017-Feb-21 20:33N 35°00' E 139°51'1211.8
2017-Feb-21 19:34N 34°58' E 139°37'232 5.2
2017-Feb-19 22:34N 34°04' E 135°03'1111.1
2017-Feb-19 21:34N 34°15' E 135°06'1 1.1
2017-Feb-19 20:34N 34°15' E 135°07'0 0.0
2017-Feb-19 19:34N 34°15' E 135°07'0 0.0
2017-Feb-19 18:34N 34°15' E 135°07'0 0.0
2017-Feb-19 17:33N 34°15' E 135°07'0 0.0
2017-Feb-19 16:33N 34°15' E 135°07'0 0.0
2017-Feb-19 15:34N 34°15' E 135°07'0 0.0
2017-Feb-19 14:33N 34°15' E 135°07'0 0.0
2017-Feb-19 13:34N 34°15' E 135°07'0 0.0
2017-Feb-19 12:34N 34°15' E 135°07'0 0.0
2017-Feb-19 11:33N 34°15' E 135°07'0 0.0
2017-Feb-19 10:34N 34°15' E 135°07'0 0.0
2017-Feb-19 09:34N 34°15' E 135°07'0 0.0
2017-Feb-19 08:34N 34°15' E 135°07'0 0.0
2017-Feb-19 07:33N 34°15' E 135°07'0 0.4
2017-Feb-19 06:33N 34°15' E 135°06'0 0.1
2017-Feb-19 05:33N 34°15' E 135°06'0 0.0
2017-Feb-19 04:33N 34°15' E 135°06'0 0.0
2017-Feb-19 03:33N 34°15' E 135°06'0 0.1
2017-Feb-19 02:33N 34°15' E 135°06'0 0.1
2017-Feb-19 01:33N 34°15' E 135°06'0 0.1
2017-Feb-19 00:34N 34°14' E 135°06'0 0.0
2017-Feb-18 23:34N 34°14' E 135°06'0 0.0
2017-Feb-18 22:33N 34°14' E 135°06'0 0.1
2017-Feb-18 21:33N 34°15' E 135°06'0 0.1
2017-Feb-18 20:33N 34°14' E 135°06'0 0.0
2017-Feb-18 19:34N 34°14' E 135°06'0 0.0
2017-Feb-18 18:33N 34°14' E 135°06'0 0.0
2017-Feb-18 17:34N 34°14' E 135°06'0 0.0
2017-Feb-18 16:34N 34°15' E 135°06'0 0.2
2017-Feb-18 15:34N 34°14' E 135°06'122 7.5
2017-Feb-17 23:16N 34°09' E 132°39'1 1.0
2017-Feb-17 22:27N 34°10' E 132°39'0 0.1
2017-Feb-17 21:28N 34°10' E 132°39'357 9.9
2017-Feb-16 09:31N 35°13' E 139°46'1111.8
2017-Feb-16 08:34N 35°24' E 139°43'9 9.0
2017-Feb-16 07:34N 35°31' E 139°50'0 0.0
2017-Feb-16 06:33N 35°31' E 139°50'4 3.7
2017-Feb-16 05:33N 35°35' E 139°50'3 3.2
2017-Feb-16 04:33N 35°37' E 139°49'0 0.0
2017-Feb-16 03:33N 35°37' E 139°49'0 0.0
2017-Feb-16 02:33N 35°37' E 139°49'0 0.0
2017-Feb-16 01:33N 35°37' E 139°49'0 0.0
2017-Feb-16 00:33N 35°37' E 139°49'0 0.0
2017-Feb-15 23:33N 35°37' E 139°49'0 0.0
2017-Feb-15 22:34N 35°37' E 139°49'1 1.3
2017-Feb-15 21:33N 35°36' E 139°50'3 2.6
2017-Feb-15 20:33N 35°34' E 139°52'0 0.0
2017-Feb-15 19:33N 35°34' E 139°52'0 0.1
2017-Feb-15 18:33N 35°34' E 139°52'8 7.8
2017-Feb-15 17:33N 35°27' E 139°49'1211.6
2017-Feb-15 16:34N 35°15' E 139°47'1312.4
2017-Feb-15 15:32N 35°03' E 139°41'  
Track history (hours):
 
Tides and Currents Weather Stations Pressure Air Temp Water Temp Dewpoint Dewpoint Depression Visibility Wind Speed Wind Dir Waves Ship Positions

Suehiro Maru No.8

Last reported at 2017-Feb-22 06:33 UTC. Time now 2017-Feb-22 06:40 UTC.
Position N 35°00' E 139°51'.

Length 88 m; draft 5.8 m.

Type: Cargo ship. MMSI: 431400446.

Date/timePositionNaut miles runAvg speedWind from/ knotsBaromVisibWave heightAir tempDewpointWater temp
2017-Feb-22 06:33N 35°00' E 139°51'0 0.0
2017-Feb-22 05:33N 35°00' E 139°51'0 0.0
2017-Feb-22 04:33N 35°00' E 139°51'0 0.0
2017-Feb-22 03:33N 35°00' E 139°51'0 0.0
2017-Feb-22 02:33N 35°00' E 139°51'0 0.1
2017-Feb-22 01:33N 35°00' E 139°51'0 0.0
2017-Feb-22 00:33N 35°00' E 139°51'0 0.0
2017-Feb-21 23:33N 35°00' E 139°51'0 0.1
2017-Feb-21 22:33N 35°00' E 139°51'0 0.0
2017-Feb-21 21:33N 35°00' E 139°51'0 0.1
2017-Feb-21 20:33N 35°00' E 139°51'1211.8
2017-Feb-21 19:34N 34°58' E 139°37'232 5.2
2017-Feb-19 22:34N 34°04' E 135°03'1111.1
2017-Feb-19 21:34N 34°15' E 135°06'1 1.1
2017-Feb-19 20:34N 34°15' E 135°07'0 0.0
2017-Feb-19 19:34N 34°15' E 135°07'0 0.0
2017-Feb-19 18:34N 34°15' E 135°07'0 0.0
2017-Feb-19 17:33N 34°15' E 135°07'0 0.0
2017-Feb-19 16:33N 34°15' E 135°07'0 0.0
2017-Feb-19 15:34N 34°15' E 135°07'0 0.0
2017-Feb-19 14:33N 34°15' E 135°07'0 0.0
2017-Feb-19 13:34N 34°15' E 135°07'0 0.0
2017-Feb-19 12:34N 34°15' E 135°07'0 0.0
2017-Feb-19 11:33N 34°15' E 135°07'0 0.0
2017-Feb-19 10:34N 34°15' E 135°07'0 0.0
2017-Feb-19 09:34N 34°15' E 135°07'0 0.0
2017-Feb-19 08:34N 34°15' E 135°07'0 0.0
2017-Feb-19 07:33N 34°15' E 135°07'0 0.4
2017-Feb-19 06:33N 34°15' E 135°06'0 0.1
2017-Feb-19 05:33N 34°15' E 135°06'0 0.0
2017-Feb-19 04:33N 34°15' E 135°06'0 0.0
2017-Feb-19 03:33N 34°15' E 135°06'0 0.1
2017-Feb-19 02:33N 34°15' E 135°06'0 0.1
2017-Feb-19 01:33N 34°15' E 135°06'0 0.1
2017-Feb-19 00:34N 34°14' E 135°06'0 0.0
2017-Feb-18 23:34N 34°14' E 135°06'0 0.0
2017-Feb-18 22:33N 34°14' E 135°06'0 0.1
2017-Feb-18 21:33N 34°15' E 135°06'0 0.1
2017-Feb-18 20:33N 34°14' E 135°06'0 0.0
2017-Feb-18 19:34N 34°14' E 135°06'0 0.0
2017-Feb-18 18:33N 34°14' E 135°06'0 0.0
2017-Feb-18 17:34N 34°14' E 135°06'0 0.0
2017-Feb-18 16:34N 34°15' E 135°06'0 0.2
2017-Feb-18 15:34N 34°14' E 135°06'122 7.5
2017-Feb-17 23:16N 34°09' E 132°39'1 1.0
2017-Feb-17 22:27N 34°10' E 132°39'0 0.1
2017-Feb-17 21:28N 34°10' E 132°39'357 9.9
2017-Feb-16 09:31N 35°13' E 139°46'1111.8
2017-Feb-16 08:34N 35°24' E 139°43'9 9.0
2017-Feb-16 07:34N 35°31' E 139°50'0 0.0
2017-Feb-16 06:33N 35°31' E 139°50'4 3.7
2017-Feb-16 05:33N 35°35' E 139°50'3 3.2
2017-Feb-16 04:33N 35°37' E 139°49'0 0.0
2017-Feb-16 03:33N 35°37' E 139°49'0 0.0
2017-Feb-16 02:33N 35°37' E 139°49'0 0.0
2017-Feb-16 01:33N 35°37' E 139°49'0 0.0
2017-Feb-16 00:33N 35°37' E 139°49'0 0.0
2017-Feb-15 23:33N 35°37' E 139°49'0 0.0
2017-Feb-15 22:34N 35°37' E 139°49'1 1.3
2017-Feb-15 21:33N 35°36' E 139°50'3 2.6
2017-Feb-15 20:33N 35°34' E 139°52'0 0.0
2017-Feb-15 19:33N 35°34' E 139°52'0 0.1
2017-Feb-15 18:33N 35°34' E 139°52'8 7.8
2017-Feb-15 17:33N 35°27' E 139°49'1211.6
2017-Feb-15 16:34N 35°15' E 139°47'1312.4
2017-Feb-15 15:32N 35°03' E 139°41'  

Dump ship's entire track history